• Join FlightAware (Why Join?)
  • Login
  • US Flag 
04:32PM EST


 

Airport Tracker/Info


-or-


 

Live Flight TrackerFlight Track Log ✈ JIA2214 ✈ 27-Apr-2012 ✈ KCLT - KOMA

Flight Track Log - Related Links

Times and Time Zones

All times are in EDT time to prevent confusion due to time zone crossing. See the JIA2214 flight status page for this flight to view local times or setup timezone preferences in your user account.

Time Position Orientation Groundspeed Altitude Reporting Facility
EDT Latitude Longitude Course Direction KTS MPH feet Rate Location/Type
11:37AM 35.2186 -80.9794 153° Southeast  Level FlightAware Approximate
11:38AM 35.1706 -80.9489 189° South 171 197 2,200  Level FAA TRACON SMA TRACON (SMA)
11:38AM 35.1364 -80.9553 231° Southwest 200 230 3,000 1,800 Climbing FAA TRACON SMA TRACON (SMA)
11:39AM 35.1108 -80.9936 272° West 224 258 4,600 2,250 Climbing FAA TRACON SMA TRACON (SMA)
11:40AM 35.1125 -81.0519 276° West 250 288 6,000 2,625 Climbing FAA TRACON SMA TRACON (SMA)
11:40AM 35.1169 -81.1069 276° West 252 290 8,100 2,850 Climbing FAA TRACON SMA TRACON (SMA)
11:41AM 35.1217 -81.1639 275° West 250 288 9,800 2,475 Climbing FAA TRACON SMA TRACON (SMA)
11:42AM 35.1261 -81.2239 276° West 255 293 11,400 2,250 Climbing FAA TRACON SMA TRACON (SMA)
11:42AM 35.1306 -81.2786 276° West 260 299 12,800 1,950 Climbing FAA TRACON SMA TRACON (SMA)
11:43AM 35.1358 -81.3436 274° West 271 312 14,000 1,690 Climbing FAA TRACON SMA TRACON (SMA)
11:43AM 35.1392 -81.4050 274° West 286 329 14,800 1,912 Climbing Atlanta Center
11:44AM 35.1456 -81.5114 264° West 310 357 16,900 2,000 Climbing Atlanta Center
11:45AM 35.1372 -81.6158 266° West 310 357 18,800 2,000 Climbing Atlanta Center
11:46AM 35.1311 -81.7278 267° West 316 364 20,900 1,900 Climbing Atlanta Center
11:47AM 35.1267 -81.8217 263° West 316 364 22,600 1,400 Climbing Atlanta Center
11:48AM 35.1158 -81.9314 265° West 321 369 23,700 1,150 Climbing Atlanta Center
11:49AM 35.1075 -82.0508 264° West 344 396 24,900 1,150 Climbing Atlanta Center
11:50AM 35.0969 -82.1703 278° West 356 410 26,000 1,067 Climbing Atlanta Center
11:52AM 35.1253 -82.4111 288° West 360 414 28,100 1,067 Climbing Atlanta Center
11:53AM 35.1583 -82.5322 287° West 368 423 29,200 1,100 Climbing Atlanta Center
11:54AM 35.1889 -82.6536 288° West 374 430 30,300 1,100 Climbing Atlanta Center
11:55AM 35.2214 -82.7778 286° West 373 429 31,400 1,100 Climbing Atlanta Center
11:56AM 35.2542 -82.9144 285° West 384 442 32,500 800 Climbing Atlanta Center
11:57AM 35.2822 -83.0414 289° West 384 442 33,000 250 Climbing Atlanta Center
11:58AM 35.3167 -83.1658 286° West 384 442 33,000 450 Level Atlanta Center
11:59AM 35.3447 -83.2850 288° West 398 458 33,900 500 Climbing Atlanta Center
12:00PM 35.3786 -83.4147 287° West 398 458 34,000 50 Climbing Atlanta Center
12:01PM 35.4106 -83.5469 287° West 398 458 34,000 450 Level Atlanta Center
12:02PM 35.4422 -83.6767 287° West 398 458 34,900 950 Climbing Atlanta Center
12:03PM 35.4739 -83.8017 286° West 393 452 35,900 550 Climbing Atlanta Center
12:04PM 35.5033 -83.9292 287° West 393 452 36,000 50 Climbing Atlanta Center
12:05PM 35.5347 -84.0542 287° West 387 445 36,000  Level Atlanta Center
12:06PM 35.5658 -84.1817 286° West 387 445 36,000  Level Atlanta Center
12:07PM 35.5950 -84.3094 286° West 387 445 36,000  Level Atlanta Center
12:08PM 35.6258 -84.4400 286° West 392 451 36,000  Level Atlanta Center
12:09PM 35.6567 -84.5703 285° West 392 451 36,000  Level Atlanta Center
12:10PM 35.6853 -84.6983 286° West 392 451 36,000  Level Atlanta Center
12:11PM 35.7197 -84.8419 286° West 397 457 36,000  Level Atlanta Center
12:14PM 35.7856 -85.1264 286° West 398 458 36,000  Level Memphis Center
12:15PM 35.8183 -85.2653 286° West 398 458 36,000  Level Memphis Center
12:16PM 35.8486 -85.3939 286° West 392 451 36,000  Level Memphis Center
12:17PM 35.8789 -85.5253 286° West 392 451 36,000  Level Memphis Center
12:18PM 35.9089 -85.6542 285° West 397 457 36,000  Level Memphis Center
12:19PM 35.9364 -85.7808 286° West 388 447 36,000  Level Memphis Center
12:20PM 35.9661 -85.9100 285° West 393 452 36,000  Level Memphis Center
12:21PM 35.9936 -86.0367 285° West 393 452 36,000  Level Memphis Center
12:22PM 36.0208 -86.1636 286° West 393 452 36,000  Level Memphis Center
12:23PM 36.0503 -86.2931 285° West 393 452 36,000  Level Memphis Center
12:24PM 36.0772 -86.4175 285° West 387 445 36,000  Level Memphis Center
12:25PM 36.1017 -86.5344 287° West 387 445 36,000  Level Memphis Center
12:26PM 36.1328 -86.6617 307° West 392 451 36,000  Level Memphis Center
12:27PM 36.1961 -86.7667 313° West 385 443 36,000  Level Memphis Center
12:28PM 36.2786 -86.8764 314° West 388 447 36,000  Level Memphis Center
12:29PM 36.3542 -86.9736 313° West 388 447 36,000  Level Memphis Center
12:30PM 36.4342 -87.0811 314° West 418 481 36,000  Level Memphis Center
12:31PM 36.5097 -87.1789 313° West 405 466 36,000  Level Memphis Center
12:32PM 36.5831 -87.2767 313° West 400 460 36,000  Level Memphis Center
12:33PM 36.6500 -87.3672 313° West 400 460 36,000  Level Memphis Center
12:34PM 36.7253 -87.4681 312° West 395 455 36,000  Level Memphis Center
12:35PM 36.7983 -87.5689 314° West 395 455 36,000  Level Memphis Center
12:36PM 36.8736 -87.6675 312° West 395 455 36,000  Level Memphis Center
12:37PM 36.9464 -87.7689 313° West 395 455 36,000  Level Memphis Center
12:38PM 37.0214 -87.8703 313° West 395 455 36,000  Level Memphis Center
12:39PM 37.1050 -87.9822 312° West 395 455 36,000  Level Memphis Center
12:40PM 37.1778 -88.0842 313° West 402 463 36,000  Level Memphis Center
12:42PM 37.3431 -88.3064 313° West 394 453 36,000  Level Kansas City Center
12:43PM 37.4192 -88.4075 312° West 400 460 36,000  Level Kansas City Center
12:44PM 37.4911 -88.5089 309° West 400 460 36,000  Level Kansas City Center
12:45PM 37.5589 -88.6164 313° West 400 460 36,000  Level Kansas City Center
12:46PM 37.6350 -88.7206 314° West 394 453 36,000  Level Kansas City Center
12:47PM 37.7131 -88.8222 316° Northwest 394 453 36,000  Level Kansas City Center
12:48PM 37.7925 -88.9186 325° Northwest 399 459 36,000  Level Kansas City Center
12:49PM 37.8753 -88.9914 329° Northwest 394 453 36,000  Level Kansas City Center
12:50PM 37.9856 -89.0756 328° Northwest 412 474 36,000  Level Kansas City Center
12:51PM 38.0806 -89.1503 337° Northwest 412 474 36,000  Level Kansas City Center
12:52PM 38.1897 -89.2086 341° North 417 480 36,000  Level Kansas City Center
12:53PM 38.3025 -89.2589 359° North 422 486 36,000  Level Kansas City Center
12:54PM 38.4256 -89.2606 357° North 422 486 36,000  Level Kansas City Center
12:55PM 38.5489 -89.2678 356° North 437 503 36,000  Level Kansas City Center
12:56PM 38.6703 -89.2778 356° North 444 511 36,000  Level Kansas City Center
12:57PM 38.7917 -89.2878 351° North 444 511 36,000  Level Kansas City Center
12:58PM 38.9094 -89.3114 339° North 438 504 36,000  Level Kansas City Center
12:59PM 39.0181 -89.3650 310° West 427 491 36,000  Level Kansas City Center
01:00PM 39.0897 -89.4750 296° West 392 451 36,000  Level Kansas City Center
01:01PM 39.1317 -89.5872 295° West 384 442 36,000  Level Kansas City Center
01:02PM 39.1811 -89.7231 296° West 390 449 36,000  Level Kansas City Center
01:03PM 39.2253 -89.8381 294° West 390 449 36,000  Level Kansas City Center
01:04PM 39.2697 -89.9667 295° West 390 449 36,000  Level Kansas City Center
01:05PM 39.3189 -90.1058 295° West 395 455 36,000  Level Kansas City Center
01:06PM 39.3606 -90.2214 294° West 395 455 36,000  Level Kansas City Center
01:07PM 39.4047 -90.3531 295° West 395 455 36,000  Level Kansas City Center
01:08PM 39.4508 -90.4794 294° West 394 453 36,000  Level Kansas City Center
01:09PM 39.4992 -90.6219 292° West 394 453 36,000  Level Kansas City Center
01:10PM 39.5386 -90.7464 295° West 399 459 36,000  Level Kansas City Center
01:11PM 39.5842 -90.8733 293° West 399 459 36,000  Level Kansas City Center
01:12PM 39.6278 -91.0058 295° West 399 459 36,000  Level Kansas City Center
01:13PM 39.6753 -91.1356 293° West 399 459 36,000  Level Kansas City Center
01:14PM 39.7186 -91.2683 295° West 399 459 36,000  Level Kansas City Center
01:15PM 39.7658 -91.4014 294° West 399 459 36,000  Level Kansas City Center
01:16PM 39.8108 -91.5344 293° West 404 465 36,000  Level Kansas City Center
01:17PM 39.8536 -91.6678 293° West 404 465 36,000  Level Kansas City Center
01:18PM 39.8964 -91.8014 296° West 404 465 36,000  Level Kansas City Center
01:19PM 39.9453 -91.9347 295° West 404 465 36,000  Level Kansas City Center
01:20PM 39.9939 -92.0711 292° West 409 471 36,000  Level Kansas City Center
01:22PM 40.0806 -92.3583 294° West 409 471 36,000  Level Kansas City Center
01:23PM 40.1289 -92.4981 294° West 415 478 36,000  Level Kansas City Center
01:24PM 40.1747 -92.6325 293° West 416 479 36,000  Level Kansas City Center
01:25PM 40.2164 -92.7617 293° West 416 479 36,000  Level Kansas City Center
01:26PM 40.2664 -92.9128 293° West 416 479 36,000  Level Kansas City Center
01:28PM 40.3658 -93.2267 292° West 408 470 36,000 -175 Level Minneapolis Center
01:29PM 40.4078 -93.3653 293° West 408 470 35,400 -1,000 Descending Minneapolis Center
01:30PM 40.4514 -93.5014 292° West 408 470 34,000 -700 Descending Minneapolis Center
01:31PM 40.4928 -93.6375 293° West 408 470 34,000  Level Minneapolis Center
01:32PM 40.5381 -93.7767 291° West 413 475 34,000  Level Minneapolis Center
01:33PM 40.5833 -93.9325 285° West 422 486 34,000 -850 Level Minneapolis Center
01:34PM 40.6117 -94.0744 283° West 411 473 32,300 -2,033 Descending Minneapolis Center
01:35PM 40.6378 -94.2222 282° West 406 467 29,900 -2,400 Descending Minneapolis Center
01:36PM 40.6617 -94.3697 284° West 412 474 27,500 -2,350 Descending Minneapolis Center
01:37PM 40.6894 -94.5122 282° West 412 474 25,200 -2,218 Descending Minneapolis Center
01:38PM 40.7089 -94.6383 280° West 407 468 23,100 -2,269 Descending Minneapolis Center
01:39PM 40.7281 -94.7781 296° West 402 463 20,700 -2,438 Descending Minneapolis Center
01:40PM 40.7603 -94.8636 280° West 363 418 19,200 -2,312 Descending Minneapolis Center
01:41PM 40.7811 -95.0144 292° West 340 391 16,500 -2,060 Descending Minneapolis Center
01:42PM 40.8147 -95.1222 307° West 327 376 14,600 -1,934 Descending Minneapolis Center
01:43PM 40.8694 -95.2167 306° West 323 372 12,600 -1,934 Descending Minneapolis Center
01:44PM 40.9200 -95.3086 307° West 315 362 10,700 -1,820 Descending Minneapolis Center
01:45PM 40.9722 -95.4008 312° West 311 358 8,900 -1,674 Descending Minneapolis Center
01:46PM 41.0292 -95.4850 329° Northwest 313 360 7,100 -1,628 Descending Minneapolis Center
01:47PM 41.1050 -95.5453 324° Northwest 306 352 5,400 -1,115 Descending Minneapolis Center
01:48PM 41.1825 -95.6194 322° Northwest 324 373 5,000 -212 Descending Minneapolis Center
01:49PM 41.2539 -95.6936 324° Northwest 319 367 5,000  Level Minneapolis Center
01:50PM 41.3231 -95.7594 324° Northwest 312 359 5,000 -347 Level Minneapolis Center
01:51PM 41.3864 -95.8200 324° Northwest 277 319 4,300 -700 Descending Minneapolis Center